AIRPORT METAR

METAR FOR LIPX
ADDS - METARS form results

(1109 UTC 18 February 2020)
Data provider http://aviationweather.gov/metar/data/
 
METAR text: LIPX 181050Z 14004KT 110V170 0900 R04/1100U FG BKN003 BKN010 09/09 Q1025
Conditions at: LIPX (VILLAFRANCA(CV/M, IT) observed 1050 UTC 18 February 2020
Temperature: 9.0°C (48°F)
Dewpoint: 9.0°C (48°F) [RH = 100%]
Pressure (altimeter): 30.27 inches Hg (1025.0 mb)
Winds: from the SE (140 degrees) at 5 MPH (4 knots; 2.1 m/s)
Visibility: 0.56 miles (0.90 km)
Ceiling: 300 feet AGL
Clouds: broken clouds at 300 feet AGL
broken clouds at 1000 feet AGL
Weather: FG  (fog)

METAR text: LIPX 181020Z 12004KT 090V150 0400 R04/0700U FG VV001 09/09 Q1025
Conditions at: LIPX (VILLAFRANCA(CV/M, IT) observed 1020 UTC 18 February 2020
Temperature: 9.0°C (48°F)
Dewpoint: 9.0°C (48°F) [RH = 100%]
Pressure (altimeter): 30.27 inches Hg (1025.0 mb)
Winds: from the ESE (120 degrees) at 5 MPH (4 knots; 2.1 m/s)
Visibility: 0.25 miles (0.40 km)
Ceiling: indefinite ceiling with vertical visibility of 100 feet AGL
Clouds: obscured sky
Weather: FG  (fog)

Forecast for: LIPX (VILLAFRANCA(CV/M, IT)
Text: TAF LIPX 180800Z 1809/1818 VRB05KT 1500 BR SCT030
Forecast period: 0900 to 1100 UTC 18 February 2020
Forecast type: FROM: standard forecast or significant change
Winds: variable direction winds at 6 MPH (5 knots; 2.6 m/s)
Visibility: 0.93 miles (1.50 km)
Ceiling: at least 12,000 feet AGL
Clouds: scattered clouds at 3000 feet AGL
Weather: BR  (mist)
Text: TEMPO 1809/1811 0500 FG BKN005
Forecast period: 0900 to 1100 UTC 18 February 2020
Forecast type: TEMPORARY: The following changes expected for less than half the time period
Visibility: 0.31 miles (0.50 km)
Ceiling: 500 feet AGL
Clouds: broken clouds at 500 feet AGL
Weather: FG  (fog)
Text: BECMG 1811/1813 6000
Forecast period: 1100 to 1800 UTC 18 February 2020
Forecast type: BECOMING: Conditions expected to become as follows by 1300 UTC 18 February 2020
Winds: variable direction winds at 6 MPH (5 knots; 2.6 m/s)
Visibility: 4 miles (6 km)
Ceiling: at least 12,000 feet AGL
Clouds: scattered clouds at 3000 feet AGL
Weather: BR  (mist)

AIRPORT MAP

 RUNWAY INFORMATION
Runway 04 Runway length 10064 ft Runway width 148 ft
Runway elevation 220 ft Runway displaced threshold 189 ft Runway heading 46
Runway 22 Runway length 10064 ft Runway width 148 ft
Runway elevation 238 ft Runway displaced threshold 1345 ft Runway heading 226

 AIRPORT FREQUENCIES
Type APP Name GARDA APP Frequency 36.23 MHZ
Type APP Name GARDA APP Frequency 124.45 MHZ
Type GND Name GND Frequency 121.75 MHZ
Type INFO Name PADOVA INF Frequency 123.25 MHZ
Type TWR Name TWR Frequency 118.65 MHZ

 AIRPORT NEAR NAVIGATION AIDS
Type VORTAC Name Villafranca Frequency 115800 KHZ
Type NDB Name Villafranca Frequency 355 KHZ



© 2017 - Royal Sky Service, All Right Reserved. | Design & Developed by Davide Torresan